createdAt,value
2017-04-15T00:00:03.238Z,1013.29
2017-04-15T00:05:02.703Z,1013.22
2017-04-15T00:10:03.422Z,1013.17
2017-04-15T00:15:03.439Z,1013
2017-04-15T00:20:03.167Z,1013.06
2017-04-15T00:25:02.745Z,1012.95
2017-04-15T00:30:03.557Z,1012.89
2017-04-15T00:35:03.586Z,1012.85
2017-04-15T00:40:03.279Z,1012.86
2017-04-15T00:45:03.329Z,1012.76
2017-04-15T00:50:03.137Z,1012.74
2017-04-15T00:55:02.715Z,1012.68
2017-04-15T01:00:03.401Z,1012.59
2017-04-15T01:05:03.118Z,1012.66
2017-04-15T01:10:02.938Z,1012.64
2017-04-15T01:15:02.743Z,1012.59
2017-04-15T01:20:03.685Z,1012.62
2017-04-15T01:25:03.291Z,1012.48
2017-04-15T01:30:10.070Z,1012.51
2017-04-15T01:35:02.774Z,1012.49
2017-04-15T01:40:03.643Z,1012.42
2017-04-15T01:45:03.467Z,1012.41
2017-04-15T01:50:03.517Z,1012.35
2017-04-15T01:55:03.356Z,1012.36
2017-04-15T02:00:05.234Z,1012.33
2017-04-15T02:05:02.991Z,1012.28
2017-04-15T02:10:02.866Z,1012.31
2017-04-15T02:15:03.439Z,1012.27
2017-04-15T02:20:03.380Z,1012.15
2017-04-15T02:25:03.157Z,1012.12
2017-04-15T02:30:02.954Z,1012.12
2017-04-15T02:35:03.591Z,1012.17
2017-04-15T02:40:03.690Z,1012.01
2017-04-15T02:45:02.688Z,1012
2017-04-15T02:50:03.499Z,1011.84
2017-04-15T02:55:03.332Z,1011.89
2017-04-15T03:00:03.013Z,1011.87
2017-04-15T03:05:02.866Z,1011.79
2017-04-15T03:10:02.756Z,1011.85
2017-04-15T03:15:03.740Z,1011.79
2017-04-15T03:20:03.521Z,1011.77
2017-04-15T03:25:03.292Z,1011.76
2017-04-15T03:30:03.236Z,1011.76
2017-04-15T03:35:03.084Z,1011.75
2017-04-15T03:40:02.949Z,1011.7
2017-04-15T03:45:03.602Z,1011.57
2017-04-15T03:50:03.797Z,1011.51
2017-04-15T03:55:03.611Z,1011.64
2017-04-15T04:00:03.327Z,1011.58
2017-04-15T04:05:03.018Z,1011.67
2017-04-15T04:10:02.813Z,1011.58
2017-04-15T04:15:03.738Z,1011.58
2017-04-15T04:20:03.765Z,1011.5
2017-04-15T04:25:03.734Z,1011.51
2017-04-15T04:30:03.355Z,1011.42
2017-04-15T04:35:02.984Z,1011.45
2017-04-15T04:40:02.827Z,1011.38
2017-04-15T04:45:03.582Z,1011.41
2017-04-15T04:50:03.455Z,1011.41
2017-04-15T04:55:03.300Z,1011.34
2017-04-15T05:00:03.311Z,1011.4
2017-04-15T05:05:02.889Z,1011.43
2017-04-15T05:10:02.736Z,1011.49
2017-04-15T05:15:03.343Z,1011.48
2017-04-15T05:20:03.226Z,1011.5
2017-04-15T05:25:03.029Z,1011.55
2017-04-15T05:30:02.749Z,1011.58
2017-04-15T05:35:03.374Z,1011.58
2017-04-15T05:40:03.169Z,1011.66
2017-04-15T05:45:03.023Z,1011.69
2017-04-15T05:50:02.721Z,1011.57
2017-04-15T05:55:03.604Z,1011.72
2017-04-15T06:00:03.154Z,1011.79
2017-04-15T06:05:02.820Z,1011.84
2017-04-15T06:10:03.598Z,1011.97
2017-04-15T06:15:03.412Z,1011.91
2017-04-15T06:20:02.991Z,1012
2017-04-15T06:25:02.759Z,1012.1
2017-04-15T06:30:03.462Z,1012.21
2017-04-15T06:35:03.124Z,1012.21
2017-04-15T06:40:02.783Z,1012.21
2017-04-15T06:45:03.734Z,1012.18
2017-04-15T06:50:03.655Z,1012.14
2017-04-15T06:55:03.328Z,1012.18
2017-04-15T07:00:03.427Z,1012.22
2017-04-15T07:05:03.186Z,1012.22
2017-04-15T07:10:02.907Z,1012.27
2017-04-15T07:15:03.678Z,1012.22
2017-04-15T07:20:03.480Z,1012.24
2017-04-15T07:25:03.234Z,1012.26
2017-04-15T07:30:02.904Z,1012.28
2017-04-15T07:35:02.755Z,1012.24
2017-04-15T07:40:03.542Z,1012.34
2017-04-15T07:45:03.120Z,1012.32
2017-04-15T07:50:02.732Z,1012.31
2017-04-15T07:55:03.724Z,1012.43
2017-04-15T08:00:03.340Z,1012.4
2017-04-15T08:05:02.956Z,1012.45
2017-04-15T08:10:03.609Z,1012.48
2017-04-15T08:15:03.444Z,1012.62
2017-04-15T08:20:03.270Z,1012.68
2017-04-15T08:25:03.027Z,1012.59
2017-04-15T08:30:02.815Z,1012.71
2017-04-15T08:35:03.642Z,1012.75
2017-04-15T08:40:03.326Z,1012.76
2017-04-15T08:45:02.961Z,1012.83
2017-04-15T08:50:03.712Z,1012.93
2017-04-15T08:55:03.308Z,1012.94
2017-04-15T09:00:03.262Z,1012.97
2017-04-15T09:05:02.954Z,1013.05
2017-04-15T09:10:02.738Z,1013.01
2017-04-15T09:15:03.536Z,1013.04
2017-04-15T09:20:03.158Z,1013.17
2017-04-15T09:25:03.465Z,1013.2
2017-04-15T09:30:02.786Z,1013.3
2017-04-15T09:35:02.855Z,1013.24
2017-04-15T09:40:03.257Z,1013.28
2017-04-15T09:45:03.162Z,1013.43
2017-04-15T09:50:03.211Z,1013.47
2017-04-15T09:55:03.624Z,1013.45
2017-04-15T10:00:03.011Z,1013.38
2017-04-15T10:05:02.726Z,1013.36
2017-04-15T10:10:02.824Z,1013.3
2017-04-15T10:15:02.837Z,1013.41
2017-04-15T10:20:02.859Z,1013.43
2017-04-15T10:25:03.495Z,1013.44
2017-04-15T10:30:03.461Z,1013.46
2017-04-15T10:35:02.799Z,1013.41
2017-04-15T10:40:03.621Z,1013.48
2017-04-15T10:45:03.538Z,1013.51
2017-04-15T10:50:03.531Z,1013.53
2017-04-15T10:55:02.911Z,1013.52
2017-04-15T11:00:03.640Z,1013.59
2017-04-15T11:05:03.656Z,1013.58
2017-04-15T11:10:02.802Z,1013.68
2017-04-15T11:15:03.321Z,1013.54
2017-04-15T11:20:03.145Z,1013.5
2017-04-15T11:25:02.864Z,1013.56
2017-04-15T11:30:02.930Z,1013.62
2017-04-15T11:35:03.396Z,1013.61
2017-04-15T11:40:03.023Z,1013.46
2017-04-15T11:45:03.432Z,1013.45
2017-04-15T11:50:02.846Z,1013.44
2017-04-15T11:55:02.946Z,1013.51
2017-04-15T12:00:03.315Z,1013.51
2017-04-15T12:05:03.381Z,1013.45
2017-04-15T12:10:03.297Z,1013.42
2017-04-15T12:15:03.163Z,1013.55
2017-04-15T12:20:03.616Z,1013.4
2017-04-15T12:25:03.670Z,1013.44
2017-04-15T12:30:03.397Z,1013.61
2017-04-15T12:35:02.681Z,1013.63
2017-04-15T12:40:03.376Z,1013.74
2017-04-15T12:45:03.515Z,1013.65
2017-04-15T12:50:02.886Z,1013.72
2017-04-15T12:55:02.928Z,1013.87
2017-04-15T13:00:03.085Z,1013.83
2017-04-15T13:05:02.723Z,1013.82
2017-04-15T13:10:03.609Z,1013.78
2017-04-15T13:15:03.219Z,1013.8
2017-04-15T13:20:02.898Z,1013.82
2017-04-15T13:25:03.666Z,1014.11
2017-04-15T13:30:02.842Z,1014.05
2017-04-15T13:35:03.424Z,1014
2017-04-15T13:40:02.897Z,1014.16
2017-04-15T13:45:03.552Z,1014.22
2017-04-15T13:50:03.309Z,1014.21
2017-04-15T13:55:02.695Z,1014.07
2017-04-15T14:00:03.222Z,1014.24
2017-04-15T14:05:03.527Z,1014.37
2017-04-15T14:10:02.832Z,1014.24
2017-04-15T14:15:03.502Z,1014.4
2017-04-15T14:20:03.237Z,1014.57
2017-04-15T14:25:03.532Z,1014.49
2017-04-15T14:30:03.326Z,1014.58
2017-04-15T14:35:03.004Z,1014.47
2017-04-15T14:40:03.447Z,1014.52
2017-04-15T14:45:02.671Z,1014.71
2017-04-15T14:50:03.011Z,1014.65
2017-04-15T14:55:03.285Z,1014.74
2017-04-15T15:00:02.824Z,1014.78
2017-04-15T15:05:03.443Z,1014.79
2017-04-15T15:10:02.950Z,1014.7
2017-04-15T15:15:03.861Z,1014.62
2017-04-15T15:20:03.249Z,1014.68
2017-04-15T15:25:03.452Z,1014.71
2017-04-15T15:30:03.131Z,1014.81
2017-04-15T15:35:02.722Z,1014.79
2017-04-15T15:40:03.130Z,1014.8
2017-04-15T15:45:03.490Z,1014.88
2017-04-15T15:50:03.520Z,1014.87
2017-04-15T15:55:03.517Z,1015
2017-04-15T16:00:02.971Z,1014.98
2017-04-15T16:05:02.894Z,1015.03
2017-04-15T16:10:03.282Z,1015.01
2017-04-15T16:15:03.437Z,1015.02
2017-04-15T16:20:03.322Z,1014.96
2017-04-15T16:25:02.685Z,1015.1
2017-04-15T16:30:02.948Z,1015.14
2017-04-15T16:35:02.824Z,1015.12
2017-04-15T16:40:02.848Z,1015.16
2017-04-15T16:45:03.380Z,1015.28
2017-04-15T16:50:03.372Z,1015.23
2017-04-15T16:55:03.176Z,1015.34
2017-04-15T17:00:03.101Z,1015.31
2017-04-15T17:05:02.790Z,1015.41
2017-04-15T17:10:03.592Z,1015.38
2017-04-15T17:15:03.466Z,1015.42
2017-04-15T17:20:03.540Z,1015.41
2017-04-15T17:25:03.664Z,1015.38
2017-04-15T17:30:03.458Z,1015.42
2017-04-15T17:35:03.382Z,1015.46
2017-04-15T17:40:02.984Z,1015.38
2017-04-15T17:45:02.819Z,1015.47
2017-04-15T17:50:03.607Z,1015.51
2017-04-15T17:55:03.832Z,1015.54
2017-04-15T18:00:03.749Z,1015.66
2017-04-15T18:05:03.281Z,1015.79
2017-04-15T18:10:03.114Z,1015.72
2017-04-15T18:15:02.743Z,1015.84
2017-04-15T18:20:03.639Z,1015.84
2017-04-15T18:25:03.275Z,1015.83
2017-04-15T18:30:02.920Z,1015.97
2017-04-15T18:35:02.834Z,1015.91
2017-04-15T18:40:03.645Z,1016.02
2017-04-15T18:45:03.188Z,1016.04
2017-04-15T18:50:02.968Z,1016.2
2017-04-15T18:55:02.698Z,1016.16
2017-04-15T19:00:03.638Z,1016.24
2017-04-15T19:05:03.383Z,1016.29
2017-04-15T19:10:03.007Z,1016.39
2017-04-15T19:15:02.777Z,1016.33
2017-04-15T19:20:03.559Z,1016.35
2017-04-15T19:25:03.350Z,1016.46
2017-04-15T19:30:02.938Z,1016.53
2017-04-15T19:35:02.753Z,1016.6
2017-04-15T19:40:03.449Z,1016.67
2017-04-15T19:45:03.098Z,1016.72
2017-04-15T19:50:02.954Z,1016.63
2017-04-15T19:55:03.098Z,1016.59
2017-04-15T20:00:02.897Z,1016.55
2017-04-15T20:05:02.838Z,1016.49
2017-04-15T20:10:03.510Z,1016.6
2017-04-15T20:15:03.408Z,1016.59
2017-04-15T20:20:03.246Z,1016.63
2017-04-15T20:25:02.799Z,1016.6
2017-04-15T20:30:03.406Z,1016.63
2017-04-15T20:35:03.011Z,1016.72
2017-04-15T20:40:02.669Z,1016.68
2017-04-15T20:45:03.439Z,1016.59
2017-04-15T20:50:03.269Z,1016.52
2017-04-15T20:55:02.997Z,1016.53
2017-04-15T21:00:03.899Z,1016.52
2017-04-15T21:05:03.756Z,1016.49
2017-04-15T21:10:03.581Z,1016.54
2017-04-15T21:15:03.444Z,1016.45
2017-04-15T21:20:03.069Z,1016.56
2017-04-15T21:25:03.660Z,1016.53
2017-04-15T21:30:03.639Z,1016.56
2017-04-15T21:35:03.546Z,1016.63
2017-04-15T21:40:03.354Z,1016.71
2017-04-15T21:45:02.896Z,1016.83
2017-04-15T21:50:03.625Z,1016.95
2017-04-15T21:55:03.341Z,1016.87
2017-04-15T22:00:03.102Z,1017.03
2017-04-15T22:05:02.754Z,1017.1
2017-04-15T22:10:03.538Z,1016.9
2017-04-15T22:15:03.549Z,1016.92
2017-04-15T22:20:03.287Z,1017.04
2017-04-15T22:25:02.869Z,1016.81
2017-04-15T22:30:03.489Z,1016.76
2017-04-15T22:35:03.214Z,1016.72
2017-04-15T22:40:03.013Z,1016.8
2017-04-15T22:45:02.688Z,1016.9
2017-04-15T22:50:03.234Z,1016.95
2017-04-15T22:55:02.979Z,1017
2017-04-15T23:00:02.762Z,1017.01
2017-04-15T23:05:03.581Z,1016.99
2017-04-15T23:10:03.343Z,1016.97
2017-04-15T23:15:02.842Z,1016.9
2017-04-15T23:20:03.728Z,1016.89
2017-04-15T23:25:03.527Z,1016.87
2017-04-15T23:30:03.267Z,1016.79
2017-04-15T23:35:02.815Z,1016.87
2017-04-15T23:40:03.503Z,1016.93
2017-04-15T23:45:03.045Z,1016.95
2017-04-15T23:50:02.656Z,1016.84
2017-04-15T23:55:03.332Z,1016.88
